Time;durP1;ratioP1;P1;durP2;ratioP2;P2;SDS_P1;SDS_P2;PMS_P1;PMS_P2;Temp;Humidity;BMP_temperature;BMP_pressure;BME280_temperature;BME280_humidity;BME280_pressure;Samples;Min_cycle;Max_cycle;Signal;HPM_P1;HPM_P2
2022/12/31 00:01:52;;;;;;;3.70;3.40;;;;;;;;;;4944911;28;20222;-87
2022/12/31 00:04:17;;;;;;;3.37;3.07;;;;;;;;;;4940515;28;20232;-87
2022/12/31 00:06:46;;;;;;;3.60;3.30;;;;;;;;;;4940864;28;20234;-87
2022/12/31 00:09:11;;;;;;;3.33;3.13;;;;;;;;;;4924773;28;20230;-88
2022/12/31 00:11:39;;;;;;;3.67;3.47;;;;;;;;;;4951953;28;20232;-87
2022/12/31 00:14:05;;;;;;;3.30;3.10;;;;;;;;;;4932295;28;20252;-89
2022/12/31 00:16:37;;;;;;;3.33;3.13;;;;;;;;;;4958781;28;20772;-87
2022/12/31 00:19:04;;;;;;;3.40;3.20;;;;;;;;;;4921213;28;20234;-88
2022/12/31 00:21:30;;;;;;;3.33;3.13;;;;;;;;;;4938205;28;20198;-86
2022/12/31 00:23:56;;;;;;;2.93;2.70;;;;;;;;;;4959035;28;20237;-87
2022/12/31 00:26:26;;;;;;;3.30;3.00;;;;;;;;;;4940722;28;20269;-86
2022/12/31 00:28:55;;;;;;;2.57;2.47;;;;;;;;;;4961073;28;20256;-85
2022/12/31 00:31:24;;;;;;;2.73;2.63;;;;;;;;;;4978749;28;20249;-86
2022/12/31 00:33:50;;;;;;;2.67;2.47;;;;;;;;;;4948919;28;20226;-87
2022/12/31 00:36:22;;;;;;;2.20;2.10;;;;;;;;;;4945305;28;20226;-87
2022/12/31 00:38:49;;;;;;;2.30;2.20;;;;;;;;;;4975931;28;20620;-86
2022/12/31 00:41:15;;;;;;;2.70;2.50;;;;;;;;;;4941343;28;20226;-88
2022/12/31 00:43:41;;;;;;;2.57;2.37;;;;;;;;;;4942658;28;20241;-87
2022/12/31 00:46:06;;;;;;;3.00;2.80;;;;;;;;;;4938896;28;20218;-87
2022/12/31 00:48:32;;;;;;;2.23;2.13;;;;;;;;;;4925175;28;20278;-87
2022/12/31 00:50:58;;;;;;;2.67;2.47;;;;;;;;;;4942800;28;20685;-87
2022/12/31 00:53:24;;;;;;;2.93;2.73;;;;;;;;;;4948644;28;20743;-87
2022/12/31 00:55:49;;;;;;;3.07;2.87;;;;;;;;;;4947545;28;20245;-87
2022/12/31 00:58:15;;;;;;;3.10;2.90;;;;;;;;;;4955170;28;20222;-85
2022/12/31 01:00:41;;;;;;;2.90;2.70;;;;;;;;;;4946313;28;20220;-84
2022/12/31 01:03:06;;;;;;;3.13;2.93;;;;;;;;;;4961733;28;20244;-85
2022/12/31 01:05:36;;;;;;;3.10;2.90;;;;;;;;;;4962157;28;20237;-86
2022/12/31 01:08:03;;;;;;;2.97;2.77;;;;;;;;;;4964658;28;20237;-86
2022/12/31 01:13:18;;;;;;;3.10;2.90;;;;;;;;;;4981402;28;20242;-85
2022/12/31 01:15:43;;;;;;;6.17;3.27;;;;;;;;;;4964150;28;20216;-87
2022/12/31 01:18:09;;;;;;;3.20;3.00;;;;;;;;;;4953968;28;20234;-86
2022/12/31 01:20:38;;;;;;;2.90;2.70;;;;;;;;;;4958927;28;20233;-86
2022/12/31 01:23:04;;;;;;;3.27;2.90;;;;;;;;;;4963284;28;20214;-86
2022/12/31 01:25:30;;;;;;;3.77;3.50;;;;;;;;;;4959526;28;20285;-86
2022/12/31 01:27:57;;;;;;;3.43;3.23;;;;;;;;;;4963843;28;20290;-87
2022/12/31 01:30:23;;;;;;;3.80;3.50;;;;;;;;;;4962718;28;20229;-86
2022/12/31 01:32:50;;;;;;;3.83;3.53;;;;;;;;;;4963023;28;20214;-86
2022/12/31 01:35:15;;;;;;;4.40;4.10;;;;;;;;;;4963094;28;20209;-86
2022/12/31 01:37:43;;;;;;;4.00;3.70;;;;;;;;;;4980269;28;20245;-86
2022/12/31 01:40:09;;;;;;;3.90;3.70;;;;;;;;;;4993425;28;20229;-86
2022/12/31 01:42:37;;;;;;;3.43;3.23;;;;;;;;;;4975260;28;20403;-86
2022/12/31 01:45:07;;;;;;;3.50;3.30;;;;;;;;;;4980075;28;20209;-87
2022/12/31 01:47:43;;;;;;;4.60;4.20;;;;;;;;;;4957546;28;20271;-85
2022/12/31 01:50:30;;;;;;;3.47;3.27;;;;;;;;;;4950664;28;20236;-85
2022/12/31 01:52:59;;;;;;;3.83;3.63;;;;;;;;;;4973276;28;20258;-86
2022/12/31 01:55:34;;;;;;;3.50;3.30;;;;;;;;;;4962153;28;20203;-86
2022/12/31 01:58:13;;;;;;;3.93;3.67;;;;;;;;;;4943416;28;20302;-85
2022/12/31 02:00:39;;;;;;;3.80;3.60;;;;;;;;;;4955943;28;20218;-85
2022/12/31 02:03:05;;;;;;;3.50;3.30;;;;;;;;;;4961625;28;20283;-86
2022/12/31 02:05:30;;;;;;;3.27;3.07;;;;;;;;;;4978473;28;20225;-85
2022/12/31 02:07:58;;;;;;;3.53;3.33;;;;;;;;;;4975708;28;20226;-85
2022/12/31 02:10:23;;;;;;;3.20;3.00;;;;;;;;;;4943923;28;20225;-85
2022/12/31 02:12:56;;;;;;;3.13;2.93;;;;;;;;;;4974902;28;20230;-85
2022/12/31 02:15:43;;;;;;;3.40;3.20;;;;;;;;;;4966106;28;20295;-86
2022/12/31 02:18:14;;;;;;;3.33;3.13;;;;;;;;;;4962062;28;20225;-85
2022/12/31 02:20:47;;;;;;;2.77;2.67;;;;;;;;;;4994535;28;20225;-85
2022/12/31 02:23:39;;;;;;;2.67;2.57;;;;;;;;;;4976604;28;20234;-85
2022/12/31 02:26:13;;;;;;;3.20;3.00;;;;;;;;;;4959579;28;20223;-85
2022/12/31 02:28:38;;;;;;;2.60;2.50;;;;;;;;;;4973378;28;20285;-85
2022/12/31 02:31:25;;;;;;;2.90;2.70;;;;;;;;;;4980298;28;20230;-85
2022/12/31 02:34:01;;;;;;;2.80;2.60;;;;;;;;;;4975650;28;20234;-85
2022/12/31 02:36:31;;;;;;;2.90;2.60;;;;;;;;;;4958954;28;20214;-86
2022/12/31 02:38:56;;;;;;;3.13;2.93;;;;;;;;;;4947662;28;20290;-86
2022/12/31 02:44:24;;;;;;;3.40;3.10;;;;;;;;;;4976869;28;20218;-87
2022/12/31 02:47:09;;;;;;;3.97;3.57;;;;;;;;;;4946316;28;20257;-87
2022/12/31 02:50:12;;;;;;;3.87;3.67;;;;;;;;;;4936799;29;20231;-87
2022/12/31 02:52:50;;;;;;;4.27;3.97;;;;;;;;;;4971054;28;20236;-85
2022/12/31 02:55:21;;;;;;;4.43;4.13;;;;;;;;;;4940680;28;20314;-85
2022/12/31 02:57:56;;;;;;;4.13;3.90;;;;;;;;;;4930735;28;20219;-86
2022/12/31 03:03:06;;;;;;;4.40;4.20;;;;;;;;;;4944758;28;20234;-86
2022/12/31 03:05:35;;;;;;;4.97;4.57;;;;;;;;;;4936852;29;20339;-85
2022/12/31 03:08:00;;;;;;;4.50;4.30;;;;;;;;;;4920092;29;20227;-87
2022/12/31 03:10:26;;;;;;;4.77;4.47;;;;;;;;;;4921621;29;20756;-86
2022/12/31 03:12:52;;;;;;;5.63;5.23;;;;;;;;;;4932094;28;20281;-86
2022/12/31 03:15:24;;;;;;;5.70;5.30;;;;;;;;;;4927978;28;20225;-86
2022/12/31 03:17:58;;;;;;;4.97;4.67;;;;;;;;;;4939737;28;20223;-83
2022/12/31 03:23:30;;;;;;;4.93;4.63;;;;;;;;;;4932820;28;20226;-86
2022/12/31 03:25:58;;;;;;;5.00;4.70;;;;;;;;;;4924178;28;20250;-86
2022/12/31 03:28:28;;;;;;;4.23;4.00;;;;;;;;;;4932572;28;20697;-83
2022/12/31 03:31:01;;;;;;;4.37;4.07;;;;;;;;;;4908219;28;20618;-86
2022/12/31 03:33:30;;;;;;;3.20;3.00;;;;;;;;;;4924190;28;20222;-84
2022/12/31 03:35:58;;;;;;;3.97;3.70;;;;;;;;;;4925302;28;20366;-83
2022/12/31 03:38:28;;;;;;;2.93;2.83;;;;;;;;;;4939335;28;20223;-87
2022/12/31 03:40:54;;;;;;;3.37;3.17;;;;;;;;;;4924460;28;20226;-85
2022/12/31 03:43:22;;;;;;;3.50;3.30;;;;;;;;;;4923794;28;20271;-85
2022/12/31 03:45:54;;;;;;;3.57;3.27;;;;;;;;;;4927522;28;20711;-84
2022/12/31 03:48:21;;;;;;;4.03;3.73;;;;;;;;;;4924122;28;20280;-85
2022/12/31 03:50:48;;;;;;;4.37;3.97;;;;;;;;;;4904713;29;20281;-86
2022/12/31 03:53:14;;;;;;;3.37;2.73;;;;;;;;;;4927912;28;20224;-84
2022/12/31 03:55:42;;;;;;;3.43;2.60;;;;;;;;;;4953884;28;20632;-86
2022/12/31 03:58:07;;;;;;;1.40;1.30;;;;;;;;;;4955014;28;20607;-84
2022/12/31 04:00:35;;;;;;;1.10;1.10;;;;;;;;;;4938180;28;20211;-85
2022/12/31 04:03:00;;;;;;;1.40;1.30;;;;;;;;;;4936642;28;20649;-83
2022/12/31 04:05:31;;;;;;;1.10;1.00;;;;;;;;;;4954677;28;20239;-86
2022/12/31 04:07:56;;;;;;;1.20;1.10;;;;;;;;;;4939721;28;20344;-85
2022/12/31 04:10:22;;;;;;;0.70;0.70;;;;;;;;;;4938225;28;21317;-85
2022/12/31 04:12:50;;;;;;;0.97;0.97;;;;;;;;;;4939390;28;20218;-84
2022/12/31 04:15:17;;;;;;;1.33;1.20;;;;;;;;;;4939174;28;20230;-84
2022/12/31 04:17:43;;;;;;;1.00;1.00;;;;;;;;;;4936855;28;20230;-85
2022/12/31 04:20:09;;;;;;;1.00;1.00;;;;;;;;;;4935708;28;20233;-83
2022/12/31 04:22:37;;;;;;;1.13;1.13;;;;;;;;;;4936002;29;20578;-86
2022/12/31 04:25:09;;;;;;;2.43;1.40;;;;;;;;;;4940663;28;20248;-84
2022/12/31 04:27:39;;;;;;;1.47;1.47;;;;;;;;;;4944552;28;20230;-84
2022/12/31 04:30:07;;;;;;;1.70;1.60;;;;;;;;;;4937353;28;20309;-86
2022/12/31 04:32:33;;;;;;;1.57;1.47;;;;;;;;;;4946463;28;20228;-85
2022/12/31 04:34:58;;;;;;;1.73;1.60;;;;;;;;;;4946081;28;20236;-86
2022/12/31 04:37:27;;;;;;;3.03;1.80;;;;;;;;;;4941774;28;20609;-84
2022/12/31 04:39:52;;;;;;;1.93;1.83;;;;;;;;;;4966524;28;20779;-86
2022/12/31 04:42:18;;;;;;;1.80;1.70;;;;;;;;;;4938831;28;20218;-85
2022/12/31 04:44:46;;;;;;;1.47;1.47;;;;;;;;;;4938244;28;20246;-86
2022/12/31 04:47:11;;;;;;;1.77;1.47;;;;;;;;;;4937644;28;20245;-85
2022/12/31 04:49:39;;;;;;;1.53;1.43;;;;;;;;;;4936370;29;20812;-85
2022/12/31 04:52:04;;;;;;;1.60;1.50;;;;;;;;;;4937105;28;20238;-86
2022/12/31 04:54:30;;;;;;;1.50;1.40;;;;;;;;;;4923939;28;20277;-86
2022/12/31 04:56:55;;;;;;;1.20;1.20;;;;;;;;;;4905685;28;20231;-87
2022/12/31 04:59:21;;;;;;;0.97;0.97;;;;;;;;;;4920098;28;20291;-86
2022/12/31 05:01:47;;;;;;;0.80;0.80;;;;;;;;;;4924453;28;20222;-86
2022/12/31 05:04:14;;;;;;;0.90;0.90;;;;;;;;;;4905012;29;20254;-84
2022/12/31 05:06:40;;;;;;;0.90;0.90;;;;;;;;;;4917442;28;20219;-84
2022/12/31 05:09:05;;;;;;;0.80;0.80;;;;;;;;;;4927428;28;20221;-86
2022/12/31 05:11:31;;;;;;;1.70;0.90;;;;;;;;;;4921358;28;20286;-83
2022/12/31 05:13:59;;;;;;;0.93;0.93;;;;;;;;;;4923052;28;20280;-83
2022/12/31 05:16:27;;;;;;;3.67;1.20;;;;;;;;;;4921774;28;20969;-83
2022/12/31 05:18:53;;;;;;;1.63;1.10;;;;;;;;;;4933746;28;20236;-83
2022/12/31 05:21:21;;;;;;;2.10;1.33;;;;;;;;;;4920405;28;20234;-84
2022/12/31 05:23:46;;;;;;;1.30;1.30;;;;;;;;;;4927704;28;20281;-88
2022/12/31 05:26:14;;;;;;;1.90;1.60;;;;;;;;;;4926052;28;20292;-85
2022/12/31 05:28:40;;;;;;;0.90;0.90;;;;;;;;;;4927705;28;20207;-85
2022/12/31 05:31:05;;;;;;;1.27;1.23;;;;;;;;;;4935725;29;20240;-86
2022/12/31 05:33:33;;;;;;;0.97;0.97;;;;;;;;;;4932801;28;20218;-84
2022/12/31 05:36:04;;;;;;;1.30;1.20;;;;;;;;;;4934823;28;20217;-83
2022/12/31 05:38:29;;;;;;;1.57;1.10;;;;;;;;;;4931345;29;20362;-85
2022/12/31 05:41:06;;;;;;;0.90;0.90;;;;;;;;;;4937953;28;20253;-84
2022/12/31 05:43:32;;;;;;;1.10;1.00;;;;;;;;;;4938077;28;20234;-84
2022/12/31 05:46:04;;;;;;;1.20;1.20;;;;;;;;;;4935669;28;20226;-86
2022/12/31 05:48:32;;;;;;;1.23;1.13;;;;;;;;;;4929874;28;20707;-85
2022/12/31 05:50:57;;;;;;;1.33;1.10;;;;;;;;;;4926884;28;20234;-86
2022/12/31 05:53:23;;;;;;;23.33;2.00;;;;;;;;;;4926613;28;20236;-86
2022/12/31 05:55:51;;;;;;;1.17;0.90;;;;;;;;;;4926656;28;20229;-85
2022/12/31 05:58:17;;;;;;;0.70;0.70;;;;;;;;;;4926089;28;20222;-86
2022/12/31 06:00:45;;;;;;;0.80;0.80;;;;;;;;;;4924125;28;20214;-84
2022/12/31 06:03:13;;;;;;;1.00;1.00;;;;;;;;;;4923926;28;20222;-85
2022/12/31 06:05:41;;;;;;;0.90;0.87;;;;;;;;;;4935100;29;20221;-87
2022/12/31 06:08:09;;;;;;;0.93;0.80;;;;;;;;;;4934147;28;20233;-83
2022/12/31 06:10:35;;;;;;;0.90;0.90;;;;;;;;;;4924295;28;20222;-84
2022/12/31 06:13:00;;;;;;;0.70;0.70;;;;;;;;;;4924854;28;20586;-86
2022/12/31 06:15:26;;;;;;;1.10;0.70;;;;;;;;;;4919534;28;20223;-85
2022/12/31 06:17:54;;;;;;;1.20;0.63;;;;;;;;;;4924922;28;20284;-84
2022/12/31 06:20:22;;;;;;;0.70;0.70;;;;;;;;;;4907663;28;20233;-86
2022/12/31 06:22:48;;;;;;;0.63;0.63;;;;;;;;;;4925532;28;20240;-84
2022/12/31 06:25:16;;;;;;;1.00;0.90;;;;;;;;;;4925825;28;20222;-84
2022/12/31 06:27:44;;;;;;;0.50;0.50;;;;;;;;;;4927343;28;20237;-83
2022/12/31 06:30:10;;;;;;;0.70;0.70;;;;;;;;;;4940664;28;20245;-83
2022/12/31 06:32:35;;;;;;;0.87;0.63;;;;;;;;;;4923282;28;20701;-82
2022/12/31 06:35:01;;;;;;;1.40;0.70;;;;;;;;;;4926145;28;20233;-83
2022/12/31 06:37:27;;;;;;;0.70;0.70;;;;;;;;;;4925710;28;20218;-84
2022/12/31 06:39:59;;;;;;;0.70;0.70;;;;;;;;;;4907126;29;20227;-84
2022/12/31 06:42:30;;;;;;;1.00;0.63;;;;;;;;;;4923519;28;20322;-85
2022/12/31 06:45:01;;;;;;;0.57;0.57;;;;;;;;;;4928123;28;20245;-84
2022/12/31 06:47:29;;;;;;;0.90;0.70;;;;;;;;;;4907804;29;20207;-87
2022/12/31 06:49:57;;;;;;;1.10;0.90;;;;;;;;;;4931388;28;20230;-85
2022/12/31 06:52:23;;;;;;;0.70;0.70;;;;;;;;;;4925104;28;20226;-86
2022/12/31 06:54:51;;;;;;;0.60;0.60;;;;;;;;;;4924224;28;20656;-84
2022/12/31 06:57:17;;;;;;;0.60;0.60;;;;;;;;;;4939807;28;20226;-84
2022/12/31 06:59:43;;;;;;;0.93;0.50;;;;;;;;;;4929696;28;20214;-85
2022/12/31 07:02:35;;;;;;;0.70;0.70;;;;;;;;;;4923547;28;20712;-85
2022/12/31 07:05:12;;;;;;;0.70;0.57;;;;;;;;;;4925409;28;20230;-85
2022/12/31 07:07:48;;;;;;;0.50;0.50;;;;;;;;;;4954465;28;20697;-86
2022/12/31 07:10:35;;;;;;;0.60;0.60;;;;;;;;;;4928287;28;20258;-85
2022/12/31 07:13:07;;;;;;;0.60;0.50;;;;;;;;;;4951521;28;20234;-84
2022/12/31 07:15:39;;;;;;;0.70;0.70;;;;;;;;;;4960417;28;20233;-87
2022/12/31 07:18:29;;;;;;;0.43;0.43;;;;;;;;;;4938347;28;20539;-87
2022/12/31 07:21:01;;;;;;;1.53;0.60;;;;;;;;;;4962660;28;20226;-84
2022/12/31 07:23:27;;;;;;;0.67;0.40;;;;;;;;;;4940258;28;20237;-82
2022/12/31 07:26:41;;;;;;;0.50;0.50;;;;;;;;;;4909109;28;20226;-87
2022/12/31 07:29:20;;;;;;;3.43;1.63;;;;;;;;;;4902704;28;20218;-84
2022/12/31 07:31:54;;;;;;;0.50;0.50;;;;;;;;;;4920036;28;20253;-84
2022/12/31 07:34:35;;;;;;;1.03;0.60;;;;;;;;;;4960039;28;20233;-86
2022/12/31 07:37:18;;;;;;;0.40;0.40;;;;;;;;;;4931872;29;20212;-85
2022/12/31 07:40:12;;;;;;;0.80;0.63;;;;;;;;;;4907597;29;20234;-86
2022/12/31 07:43:08;;;;;;;0.97;0.87;;;;;;;;;;4942875;28;20234;-84
2022/12/31 07:45:48;;;;;;;0.40;0.40;;;;;;;;;;4936404;28;20227;-86
2022/12/31 07:48:24;;;;;;;0.77;0.30;;;;;;;;;;4942812;28;20230;-84
2022/12/31 07:50:50;;;;;;;0.63;0.60;;;;;;;;;;4928516;28;20296;-86
2022/12/31 07:53:18;;;;;;;0.73;0.53;;;;;;;;;;4929882;28;20319;-86
2022/12/31 07:55:47;;;;;;;0.60;0.60;;;;;;;;;;4955779;28;20264;-83
2022/12/31 07:58:17;;;;;;;0.80;0.50;;;;;;;;;;4939962;28;20225;-84
2022/12/31 08:00:43;;;;;;;0.30;0.30;;;;;;;;;;4938573;28;20217;-85
2022/12/31 08:03:33;;;;;;;0.40;0.40;;;;;;;;;;4942685;28;20241;-86
2022/12/31 08:06:16;;;;;;;0.40;0.40;;;;;;;;;;4966334;28;20245;-82
2022/12/31 08:09:07;;;;;;;0.23;0.23;;;;;;;;;;4940868;28;20218;-84
2022/12/31 08:11:37;;;;;;;0.20;0.20;;;;;;;;;;4939798;28;20237;-86
2022/12/31 08:14:04;;;;;;;0.40;0.30;;;;;;;;;;4971265;28;20281;-85
2022/12/31 08:16:30;;;;;;;0.40;0.30;;;;;;;;;;4939373;28;20233;-83
2022/12/31 08:18:58;;;;;;;0.27;0.27;;;;;;;;;;4937017;28;20231;-85
2022/12/31 08:21:42;;;;;;;0.67;0.37;;;;;;;;;;4924663;28;20227;-84
2022/12/31 08:24:37;;;;;;;0.20;0.20;;;;;;;;;;4967400;28;20226;-85
2022/12/31 08:27:28;;;;;;;0.40;0.30;;;;;;;;;;4972261;28;20222;-84
2022/12/31 08:30:11;;;;;;;0.67;0.40;;;;;;;;;;4938324;28;20225;-86
2022/12/31 08:33:05;;;;;;;0.30;0.30;;;;;;;;;;4921990;29;20230;-86
2022/12/31 08:35:46;;;;;;;0.40;0.40;;;;;;;;;;4961263;28;20227;-86
2022/12/31 08:38:14;;;;;;;0.53;0.30;;;;;;;;;;4963821;28;20226;-85
2022/12/31 08:41:10;;;;;;;0.20;0.20;;;;;;;;;;4972553;28;20276;-86
2022/12/31 08:43:50;;;;;;;0.37;0.37;;;;;;;;;;4953583;28;20260;-85
2022/12/31 08:46:26;;;;;;;0.30;0.30;;;;;;;;;;4953637;28;20228;-84
2022/12/31 08:48:53;;;;;;;0.30;0.30;;;;;;;;;;4939273;28;20274;-85
2022/12/31 08:51:23;;;;;;;0.47;0.30;;;;;;;;;;4935671;28;20222;-84
2022/12/31 08:53:49;;;;;;;0.20;0.20;;;;;;;;;;4938152;28;20232;-86
2022/12/31 08:56:17;;;;;;;0.40;0.40;;;;;;;;;;4941253;28;20284;-87
2022/12/31 08:58:52;;;;;;;0.80;0.30;;;;;;;;;;4970032;28;20230;-87
2022/12/31 09:01:21;;;;;;;0.20;0.20;;;;;;;;;;4936718;28;20542;-87
2022/12/31 09:04:00;;;;;;;0.27;0.27;;;;;;;;;;4921557;28;20226;-84
2022/12/31 09:06:39;;;;;;;0.30;0.30;;;;;;;;;;4960404;28;20697;-84
2022/12/31 09:09:23;;;;;;;0.63;0.30;;;;;;;;;;4940443;28;20656;-84
2022/12/31 09:11:53;;;;;;;0.60;0.30;;;;;;;;;;4953984;28;20223;-85
2022/12/31 09:14:41;;;;;;;0.93;0.33;;;;;;;;;;4939774;28;20706;-86
2022/12/31 09:17:24;;;;;;;0.30;0.30;;;;;;;;;;4968235;28;20252;-86
2022/12/31 09:19:50;;;;;;;0.70;0.70;;;;;;;;;;4971179;28;21684;-86
2022/12/31 09:22:18;;;;;;;0.30;0.30;;;;;;;;;;4938679;28;20281;-85
2022/12/31 09:24:44;;;;;;;0.20;0.20;;;;;;;;;;4954135;28;20237;-83
2022/12/31 09:27:24;;;;;;;0.30;0.30;;;;;;;;;;4939375;28;20222;-85
2022/12/31 09:30:00;;;;;;;0.30;0.30;;;;;;;;;;4972104;28;20769;-83
2022/12/31 09:32:56;;;;;;;0.27;0.27;;;;;;;;;;4954598;28;21608;-85
2022/12/31 09:35:45;;;;;;;1.13;0.60;;;;;;;;;;4948580;28;20222;-87
2022/12/31 09:38:36;;;;;;;0.40;0.40;;;;;;;;;;4969600;28;20214;-86
2022/12/31 09:41:12;;;;;;;0.70;0.70;;;;;;;;;;4952523;28;20231;-86
2022/12/31 09:43:40;;;;;;;2.30;1.80;;;;;;;;;;4970172;28;20229;-85
2022/12/31 09:46:24;;;;;;;0.30;0.30;;;;;;;;;;4969746;28;20226;-85
2022/12/31 09:48:58;;;;;;;0.60;0.60;;;;;;;;;;4972582;28;20222;-84
2022/12/31 09:51:29;;;;;;;0.97;0.97;;;;;;;;;;4953566;28;20214;-82
2022/12/31 09:54:04;;;;;;;0.30;0.30;;;;;;;;;;4951549;28;20234;-85
2022/12/31 09:56:38;;;;;;;0.87;0.40;;;;;;;;;;4975891;28;20233;-84
2022/12/31 09:59:22;;;;;;;0.67;0.67;;;;;;;;;;4975828;28;20222;-87
2022/12/31 10:02:20;;;;;;;0.20;0.20;;;;;;;;;;4966737;28;20285;-86
2022/12/31 10:04:47;;;;;;;0.50;0.50;;;;;;;;;;4948774;28;20261;-81
2022/12/31 10:07:51;;;;;;;0.67;0.67;;;;;;;;;;4960406;28;20272;-88
2022/12/31 10:10:23;;;;;;;0.80;0.63;;;;;;;;;;4950780;28;20238;-85
2022/12/31 10:13:19;;;;;;;2.30;1.53;;;;;;;;;;4937947;28;20222;-85
2022/12/31 10:15:59;;;;;;;0.90;0.90;;;;;;;;;;4953253;28;20337;-87
2022/12/31 10:18:54;;;;;;;0.50;0.50;;;;;;;;;;4960299;28;20233;-85
2022/12/31 10:21:53;;;;;;;0.70;0.70;;;;;;;;;;4954343;28;20357;-85
2022/12/31 10:24:19;;;;;;;0.80;0.80;;;;;;;;;;4954650;28;20676;-90
2022/12/31 10:27:20;;;;;;;0.67;0.67;;;;;;;;;;4972042;28;20230;-87
2022/12/31 10:29:46;;;;;;;1.63;1.53;;;;;;;;;;4940390;28;20233;-87
2022/12/31 10:32:41;;;;;;;0.90;0.90;;;;;;;;;;4957258;28;20226;-84
2022/12/31 10:35:27;;;;;;;1.00;0.90;;;;;;;;;;4986912;28;20230;-85
2022/12/31 10:38:08;;;;;;;0.97;0.97;;;;;;;;;;4970517;28;20227;-83
2022/12/31 10:40:59;;;;;;;1.50;1.40;;;;;;;;;;4970494;28;20657;-85
2022/12/31 10:43:31;;;;;;;1.93;1.63;;;;;;;;;;4967298;28;20282;-84
2022/12/31 10:46:07;;;;;;;0.87;0.87;;;;;;;;;;4965157;28;20221;-85
2022/12/31 10:48:44;;;;;;;1.13;1.10;;;;;;;;;;4971570;28;20231;-84
2022/12/31 10:51:38;;;;;;;1.77;1.40;;;;;;;;;;4966548;28;20217;-90
2022/12/31 10:54:23;;;;;;;1.40;1.30;;;;;;;;;;4963901;28;20346;-86
2022/12/31 10:57:24;;;;;;;1.50;1.40;;;;;;;;;;4954481;28;20221;-83
2022/12/31 11:00:09;;;;;;;1.80;1.50;;;;;;;;;;4969908;28;20237;-86
2022/12/31 11:02:37;;;;;;;1.80;1.40;;;;;;;;;;4967999;28;20238;-85
2022/12/31 11:05:40;;;;;;;1.40;1.30;;;;;;;;;;4956553;28;20237;-86
2022/12/31 11:08:21;;;;;;;1.10;1.00;;;;;;;;;;4968268;28;20225;-84
2022/12/31 11:11:24;;;;;;;1.83;1.73;;;;;;;;;;4966823;28;20222;-83
2022/12/31 11:14:16;;;;;;;1.43;1.33;;;;;;;;;;4969501;28;20233;-83
2022/12/31 11:16:52;;;;;;;1.27;1.17;;;;;;;;;;4963395;28;20230;-84
2022/12/31 11:19:26;;;;;;;9.30;5.80;;;;;;;;;;4951592;28;20218;-81
2022/12/31 11:22:04;;;;;;;3.17;1.40;;;;;;;;;;4943504;28;20210;-85
2022/12/31 11:25:04;;;;;;;1.10;1.00;;;;;;;;;;4969334;28;20244;-80
2022/12/31 11:27:53;;;;;;;0.60;0.60;;;;;;;;;;4943429;28;20218;-85
2022/12/31 11:30:28;;;;;;;0.70;0.70;;;;;;;;;;4969501;28;20607;-84
2022/12/31 11:33:03;;;;;;;1.17;0.87;;;;;;;;;;4952362;28;20221;-82
2022/12/31 11:35:59;;;;;;;1.00;1.00;;;;;;;;;;4966009;28;20226;-85
2022/12/31 11:38:34;;;;;;;1.57;1.40;;;;;;;;;;4973508;28;20222;-84
2022/12/31 11:41:31;;;;;;;1.47;1.37;;;;;;;;;;4959435;28;20229;-85
2022/12/31 11:44:19;;;;;;;1.80;0.80;;;;;;;;;;4948837;28;20257;-83
2022/12/31 11:46:57;;;;;;;2.10;1.90;;;;;;;;;;4957219;28;20256;-85
2022/12/31 11:50:14;;;;;;;1.83;1.73;;;;;;;;;;4966562;28;21046;-86
2022/12/31 11:53:10;;;;;;;1.13;1.03;;;;;;;;;;4962134;28;20249;-85
2022/12/31 11:56:28;;;;;;;3.57;1.57;;;;;;;;;;4957510;28;20624;-87
2022/12/31 11:59:40;;;;;;;0.73;0.73;;;;;;;;;;4964386;28;20221;-86
2022/12/31 12:02:39;;;;;;;1.40;1.30;;;;;;;;;;4962395;28;20590;-85
2022/12/31 12:05:07;;;;;;;1.00;1.00;;;;;;;;;;4977080;28;20201;-82
2022/12/31 12:07:40;;;;;;;0.97;0.97;;;;;;;;;;4967648;28;20210;-83
2022/12/31 12:10:55;;;;;;;0.80;0.80;;;;;;;;;;4967413;28;20244;-85
2022/12/31 12:13:35;;;;;;;2.00;1.90;;;;;;;;;;4970936;28;20256;-85
2022/12/31 12:16:02;;;;;;;1.63;1.53;;;;;;;;;;4969144;28;20753;-84
2022/12/31 12:18:35;;;;;;;2.13;2.03;;;;;;;;;;4953048;28;20237;-84
2022/12/31 12:21:21;;;;;;;2.03;1.83;;;;;;;;;;4969482;28;21413;-84
2022/12/31 12:23:59;;;;;;;0.70;0.70;;;;;;;;;;4942472;28;20238;-85
2022/12/31 12:26:36;;;;;;;1.45;1.13;;;;;;;;;;4961252;28;20224;-85
2022/12/31 12:29:22;;;;;;;0.60;0.60;;;;;;;;;;4945382;28;20798;-83
2022/12/31 12:32:15;;;;;;;1.27;0.80;;;;;;;;;;4933000;28;20237;-87
2022/12/31 12:34:40;;;;;;;0.90;0.90;;;;;;;;;;4955868;28;20252;-84
2022/12/31 12:37:21;;;;;;;0.80;0.80;;;;;;;;;;4945394;28;20225;-84
2022/12/31 12:39:56;;;;;;;1.17;1.07;;;;;;;;;;4962559;28;20221;-82
2022/12/31 12:42:29;;;;;;;3.23;1.10;;;;;;;;;;4959444;28;20563;-82
2022/12/31 12:46:15;;;;;;;;;;;;;;;;;;;;;
2022/12/31 12:49:11;;;;;;;1.53;1.13;;;;;;;;;;4859929;29;20282;-83
2022/12/31 12:52:18;;;;;;;2.13;0.87;;;;;;;;;;4877420;29;20227;-87
2022/12/31 12:55:34;;;;;;;;;;;;;;;;;;;;;
2022/12/31 12:58:12;;;;;;;1.87;0.93;;;;;;;;;;4969508;28;20559;-87
2022/12/31 13:00:52;;;;;;;0.53;0.53;;;;;;;;;;4953959;28;20320;-85
2022/12/31 13:03:50;;;;;;;;;;;;;;;;;;;;;
2022/12/31 13:06:32;;;;;;;0.70;0.70;;;;;;;;;;4963148;28;20237;-86
2022/12/31 13:09:33;;;;;;;1.00;0.80;;;;;;;;;;4955980;28;20229;-88
2022/12/31 13:12:23;;;;;;;0.70;0.70;;;;;;;;;;4959876;28;20237;-87
2022/12/31 13:15:34;;;;;;;1.33;0.70;;;;;;;;;;4963047;28;20222;-86
2022/12/31 13:18:17;;;;;;;0.60;0.60;;;;;;;;;;4970577;28;20218;-87
2022/12/31 13:21:29;;;;;;;1.40;1.30;;;;;;;;;;4974144;28;20226;-86
2022/12/31 13:24:56;;;;;;;1.23;1.13;;;;;;;;;;4972466;28;20226;-87
2022/12/31 13:27:35;;;;;;;1.97;1.47;;;;;;;;;;4955188;28;20365;-82
2022/12/31 13:30:04;;;;;;;1.40;1.30;;;;;;;;;;4966313;28;20957;-80
2022/12/31 13:32:37;;;;;;;1.63;1.27;;;;;;;;;;4954519;28;20245;-80
2022/12/31 13:35:33;;;;;;;2.23;1.17;;;;;;;;;;4979927;28;20238;-80
2022/12/31 13:38:47;;;;;;;;;;;;;;;;;;;;;
2022/12/31 13:41:31;;;;;;;2.70;2.50;;;;;;;;;;4970608;28;20222;-81
2022/12/31 13:45:02;;;;;;;;;;;;;;;;;;;;;
2022/12/31 13:47:47;;;;;;;1.20;1.10;;;;;;;;;;4917798;29;20427;-82
2022/12/31 13:50:54;;;;;;;1.53;1.10;;;;;;;;;;4888787;29;20634;-81
2022/12/31 13:53:33;;;;;;;2.30;1.60;;;;;;;;;;4970967;28;20309;-83
2022/12/31 13:56:15;;;;;;;1.90;1.47;;;;;;;;;;4971204;28;20234;-80
2022/12/31 13:58:52;;;;;;;1.50;1.40;;;;;;;;;;4966443;28;20233;-81
2022/12/31 14:01:20;;;;;;;3.37;1.67;;;;;;;;;;4951811;28;20292;-81
2022/12/31 14:03:55;;;;;;;1.53;1.43;;;;;;;;;;4974393;28;20237;-79
2022/12/31 14:06:48;;;;;;;2.10;2.00;;;;;;;;;;4964576;28;20214;-80
2022/12/31 14:09:19;;;;;;;2.43;1.70;;;;;;;;;;4967345;28;20206;-79
2022/12/31 14:11:49;;;;;;;3.97;2.42;;;;;;;;;;4984387;28;20257;-79
2022/12/31 14:14:28;;;;;;;3.10;1.60;;;;;;;;;;4968431;28;20241;-82
2022/12/31 14:17:07;;;;;;;2.70;1.67;;;;;;;;;;4956556;28;20234;-85
2022/12/31 14:19:55;;;;;;;2.77;2.47;;;;;;;;;;4968555;28;20222;-81
2022/12/31 14:22:35;;;;;;;4.03;3.33;;;;;;;;;;4977763;28;20231;-81
2022/12/31 14:25:05;;;;;;;5.63;5.10;;;;;;;;;;4975875;28;20230;-79
2022/12/31 14:27:36;;;;;;;9.80;5.43;;;;;;;;;;4946364;28;20232;-81
2022/12/31 14:30:19;;;;;;;3.43;2.47;;;;;;;;;;4951181;28;20234;-83
2022/12/31 14:33:00;;;;;;;1.80;1.65;;;;;;;;;;4942585;28;20386;-83
2022/12/31 14:35:49;;;;;;;3.58;2.40;;;;;;;;;;4965255;28;20662;-82
2022/12/31 14:38:23;;;;;;;3.85;2.00;;;;;;;;;;4962973;28;20269;-84
2022/12/31 14:41:00;;;;;;;2.40;2.00;;;;;;;;;;4972212;28;20233;-81
2022/12/31 14:43:48;;;;;;;4.03;2.10;;;;;;;;;;4967519;28;20231;-82
2022/12/31 14:46:42;;;;;;;3.53;1.87;;;;;;;;;;4948141;28;20223;-82
2022/12/31 14:49:21;;;;;;;1.70;1.52;;;;;;;;;;4975172;28;20222;-84
2022/12/31 14:51:53;;;;;;;2.85;1.92;;;;;;;;;;4950229;28;20237;-84
2022/12/31 14:54:37;;;;;;;4.05;3.47;;;;;;;;;;4933390;28;20333;-82
2022/12/31 14:57:22;;;;;;;4.47;2.50;;;;;;;;;;4926164;28;21579;-80
2022/12/31 14:59:58;;;;;;;2.72;1.95;;;;;;;;;;4943568;28;20238;-84
2022/12/31 15:02:47;;;;;;;3.30;1.70;;;;;;;;;;4941571;28;20229;-81
2022/12/31 15:05:16;;;;;;;2.85;1.80;;;;;;;;;;4963316;28;20238;-79
2022/12/31 15:07:48;;;;;;;1.67;1.42;;;;;;;;;;4947884;28;20238;-81
2022/12/31 15:10:37;;;;;;;2.57;1.40;;;;;;;;;;4920790;28;20288;-82
2022/12/31 15:13:20;;;;;;;2.45;2.00;;;;;;;;;;4928852;28;20222;-80
2022/12/31 15:15:57;;;;;;;3.38;2.00;;;;;;;;;;4970626;28;20313;-82
2022/12/31 15:18:44;;;;;;;2.60;2.17;;;;;;;;;;4958044;28;20269;-82
2022/12/31 15:21:22;;;;;;;5.45;2.60;;;;;;;;;;4973757;28;20229;-83
2022/12/31 15:23:48;;;;;;;2.00;1.65;;;;;;;;;;4973031;28;20230;-82
2022/12/31 15:26:25;;;;;;;4.50;1.60;;;;;;;;;;4938482;28;20841;-80
2022/12/31 15:29:02;;;;;;;7.60;2.77;;;;;;;;;;4943701;28;20233;-83
2022/12/31 15:31:33;;;;;;;6.13;5.53;;;;;;;;;;4938825;28;20252;-81
2022/12/31 15:33:59;;;;;;;3.80;2.40;;;;;;;;;;4953699;28;20226;-79
2022/12/31 15:36:36;;;;;;;2.38;1.35;;;;;;;;;;4950123;28;20262;-82
2022/12/31 15:39:11;;;;;;;1.80;1.70;;;;;;;;;;4957955;28;20221;-83
2022/12/31 15:41:45;;;;;;;1.27;1.15;;;;;;;;;;4970261;28;20249;-79
2022/12/31 15:44:29;;;;;;;2.15;1.30;;;;;;;;;;4970770;28;20246;-82
2022/12/31 15:47:00;;;;;;;2.83;1.60;;;;;;;;;;4950246;28;20226;-80
2022/12/31 15:49:39;;;;;;;1.83;1.43;;;;;;;;;;4958996;28;20225;-81
2022/12/31 15:52:16;;;;;;;2.30;1.53;;;;;;;;;;4941338;28;20241;-80
2022/12/31 15:54:47;;;;;;;3.35;1.75;;;;;;;;;;4944059;28;20235;-80